Mobile, AL

11:37 AM CDT on August 31, 2016 (GMT -0500)
Hickory Ridge | | Change Station

Elev 200 ft 30.65 °N, 88.18 °W | Updated 8 seconds ago

Partly Cloudy
Partly Cloudy
87.4 °F
Feels Like 85 °F
N
3.8
Wind Variable Wind from South
Gusts 9.2 mph

Today
High -- | Low -- °F
--% Chance of Precip.
Yesterday
High -- | Low -- °F
Precip. -- in
Pressure 29.91 in
Visibility 10.0 miles
Clouds Few 2500 ft
Few 20000 ft
Heat Index 85 °F
Dew Point 53 °F
Humidity 31%
Rainfall 0.00 in
Snow Depth Not available.
6:28 AM 7:16 PM
Waning Crescent, 0% visible
METAR KMOB 311556Z 07007KT 10SM FEW025 FEW200 31/22 A2992 RMK AO2 SLP127 T03060222
Pressure 29.91 in
Visibility 10.0 miles
Clouds Few 2500 ft
Few 20000 ft
Heat Index 85 °F
Dew Point 53 °F
Humidity 31%
Rainfall 0.00 in
Snow Depth Not available.
6:28 AM 7:16 PM
Waning Crescent, 0% visible
METAR KMOB 311556Z 07007KT 10SM FEW025 FEW200 31/22 A2992 RMK AO2 SLP127 T03060222

10-Day Weather Forecast

Almanac

Astronomy

Aug. 31, 2016 Rise Set
Actual Time
Civil Twilight
Nautical Twilight
Astronomical Twilight
Moon
Length of Visible Light
Length of Day
Tomorrow will be .
, % of the Moon is Illuminated

Today's Extremes

State Highs State Lows

Community

WunderPhotos

Upload Photos

1,936,115 photos uploaded!

WunderBlog® & News

Nearby

Air Quality

  Air Quality AQ Index Pollutant
Not available.

Snow Depth

Station Depth Elevation

Earthquake Activity

City Distance Mag. Time & Date
Minimum magnitude displayed is 2.5.

Coastal Water Temperatures

Place Temperature

Stations

Nearby Weather Stations

Station Location Temp. Windchill Dew Point Humidity Wind Precip. Elev Updated Type
                   

Watches & Warnings

There are currently no watches in effect.